sensor_id;sensor_type;location;lat;lon;timestamp;pressure;altitude;pressure_sealevel;temperature;humidity
70815;BME280;58428;49.478;10.986;2023-04-01T00:01:00;96953.22;;;9.08;100.00
70815;BME280;58428;49.478;10.986;2023-04-01T00:03:28;96951.47;;;9.16;100.00
70815;BME280;58428;49.478;10.986;2023-04-01T00:06:00;96947.78;;;9.23;100.00
70815;BME280;58428;49.478;10.986;2023-04-01T00:08:29;96951.78;;;9.29;100.00
70815;BME280;58428;49.478;10.986;2023-04-01T00:10:55;96946.44;;;9.33;100.00
70815;BME280;58428;49.478;10.986;2023-04-01T00:13:26;96948.44;;;9.36;100.00
70815;BME280;58428;49.478;10.986;2023-04-01T00:15:52;96949.22;;;9.36;100.00
70815;BME280;58428;49.478;10.986;2023-04-01T00:18:18;96943.91;;;9.40;100.00
70815;BME280;58428;49.478;10.986;2023-04-01T00:20:51;96952.44;;;9.42;100.00
70815;BME280;58428;49.478;10.986;2023-04-01T00:23:18;96943.56;;;9.41;100.00
70815;BME280;58428;49.478;10.986;2023-04-01T00:25:45;96949.81;;;9.45;100.00
70815;BME280;58428;49.478;10.986;2023-04-01T00:28:16;96941.28;;;9.43;100.00
70815;BME280;58428;49.478;10.986;2023-04-01T00:30:46;96942.34;;;9.39;100.00
70815;BME280;58428;49.478;10.986;2023-04-01T00:33:13;96943.13;;;9.39;100.00
70815;BME280;58428;49.478;10.986;2023-04-01T00:35:39;96939.28;;;9.40;100.00
70815;BME280;58428;49.478;10.986;2023-04-01T00:38:06;96949.38;;;9.43;100.00
70815;BME280;58428;49.478;10.986;2023-04-01T00:40:44;96937.81;;;9.43;100.00
70815;BME280;58428;49.478;10.986;2023-04-01T00:43:18;96934.81;;;9.48;100.00
70815;BME280;58428;49.478;10.986;2023-04-01T00:45:46;96942.16;;;9.47;100.00
70815;BME280;58428;49.478;10.986;2023-04-01T00:48:19;96941.38;;;9.47;100.00
70815;BME280;58428;49.478;10.986;2023-04-01T00:50:55;96948.41;;;9.51;100.00
70815;BME280;58428;49.478;10.986;2023-04-01T00:53:22;96936.09;;;9.53;100.00
70815;BME280;58428;49.478;10.986;2023-04-01T00:55:58;96933.41;;;9.53;100.00
70815;BME280;58428;49.478;10.986;2023-04-01T00:58:27;96946.56;;;9.55;100.00
70815;BME280;58428;49.478;10.986;2023-04-01T01:00:57;96935.84;;;9.58;100.00
70815;BME280;58428;49.478;10.986;2023-04-01T01:03:24;96937.72;;;9.58;100.00
70815;BME280;58428;49.478;10.986;2023-04-01T01:11:05;96943.13;;;9.58;100.00
70815;BME280;58428;49.478;10.986;2023-04-01T01:13:42;96942.78;;;9.59;100.00
70815;BME280;58428;49.478;10.986;2023-04-01T01:16:26;96940.81;;;9.56;100.00
70815;BME280;58428;49.478;10.986;2023-04-01T01:24:46;96949.69;;;9.57;100.00
70815;BME280;58428;49.478;10.986;2023-04-01T01:27:19;96948.53;;;9.58;100.00
70815;BME280;58428;49.478;10.986;2023-04-01T01:37:50;96932.72;;;9.56;100.00
70815;BME280;58428;49.478;10.986;2023-04-01T01:40:19;96934.25;;;9.57;100.00
70815;BME280;58428;49.478;10.986;2023-04-01T01:42:50;96938.53;;;9.58;100.00
70815;BME280;58428;49.478;10.986;2023-04-01T01:45:20;96934.19;;;9.54;100.00
70815;BME280;58428;49.478;10.986;2023-04-01T01:47:48;96935.31;;;9.53;100.00
70815;BME280;58428;49.478;10.986;2023-04-01T01:50:16;96933.06;;;9.55;100.00
70815;BME280;58428;49.478;10.986;2023-04-01T01:52:42;96926.59;;;9.59;100.00
70815;BME280;58428;49.478;10.986;2023-04-01T01:57:52;96925.03;;;9.58;100.00
70815;BME280;58428;49.478;10.986;2023-04-01T02:00:21;96930.44;;;9.58;100.00
70815;BME280;58428;49.478;10.986;2023-04-01T02:02:48;96921.19;;;9.59;100.00
70815;BME280;58428;49.478;10.986;2023-04-01T02:05:20;96925.88;;;9.62;100.00
70815;BME280;58428;49.478;10.986;2023-04-01T02:07:57;96922.00;;;9.60;100.00
70815;BME280;58428;49.478;10.986;2023-04-01T02:10:26;96918.47;;;9.59;100.00
70815;BME280;58428;49.478;10.986;2023-04-01T02:12:58;96917.78;;;9.62;100.00
70815;BME280;58428;49.478;10.986;2023-04-01T02:15:25;96920.50;;;9.62;100.00
70815;BME280;58428;49.478;10.986;2023-04-01T02:17:56;96920.50;;;9.62;100.00
70815;BME280;58428;49.478;10.986;2023-04-01T02:20:23;96917.00;;;9.62;100.00
70815;BME280;58428;49.478;10.986;2023-04-01T02:22:53;96922.84;;;9.64;100.00
70815;BME280;58428;49.478;10.986;2023-04-01T02:25:26;96920.56;;;9.66;100.00
70815;BME280;58428;49.478;10.986;2023-04-01T02:27:54;96915.59;;;9.68;100.00
70815;BME280;58428;49.478;10.986;2023-04-01T02:30:21;96924.13;;;9.70;100.00
70815;BME280;58428;49.478;10.986;2023-04-01T02:32:47;96921.00;;;9.68;100.00
70815;BME280;58428;49.478;10.986;2023-04-01T02:35:16;96924.47;;;9.68;100.00
70815;BME280;58428;49.478;10.986;2023-04-01T02:37:43;96925.16;;;9.65;100.00
70815;BME280;58428;49.478;10.986;2023-04-01T02:40:12;96925.59;;;9.67;100.00
70815;BME280;58428;49.478;10.986;2023-04-01T02:42:38;96931.97;;;9.59;100.00
70815;BME280;58428;49.478;10.986;2023-04-01T02:45:04;96933.06;;;9.55;100.00
70815;BME280;58428;49.478;10.986;2023-04-01T02:47:30;96932.72;;;9.56;100.00
70815;BME280;58428;49.478;10.986;2023-04-01T02:49:56;96931.22;;;9.59;100.00
70815;BME280;58428;49.478;10.986;2023-04-01T02:52:24;96930.00;;;9.56;100.00
70815;BME280;58428;49.478;10.986;2023-04-01T02:54:50;96931.56;;;9.57;100.00
70815;BME280;58428;49.478;10.986;2023-04-01T02:57:16;96938.88;;;9.57;100.00
70815;BME280;58428;49.478;10.986;2023-04-01T02:59:42;96933.91;;;9.59;100.00
70815;BME280;58428;49.478;10.986;2023-04-01T03:02:09;96926.47;;;9.53;100.00
70815;BME280;58428;49.478;10.986;2023-04-01T03:04:34;96941.72;;;9.45;100.00
70815;BME280;58428;49.478;10.986;2023-04-01T03:07:00;96941.28;;;9.43;100.00
70815;BME280;58428;49.478;10.986;2023-04-01T03:09:26;96937.44;;;9.44;100.00
70815;BME280;58428;49.478;10.986;2023-04-01T03:11:51;96945.97;;;9.46;100.00
70815;BME280;58428;49.478;10.986;2023-04-01T03:17:02;96953.78;;;9.51;100.00
70815;BME280;58428;49.478;10.986;2023-04-01T03:19:28;96949.47;;;9.47;100.00
70815;BME280;58428;49.478;10.986;2023-04-01T03:21:53;96947.19;;;9.49;100.00
70815;BME280;58428;49.478;10.986;2023-04-01T03:24:20;96948.75;;;9.50;100.00
70815;BME280;58428;49.478;10.986;2023-04-01T03:26:46;96944.97;;;9.54;100.00
70815;BME280;58428;49.478;10.986;2023-04-01T03:29:11;96947.75;;;9.57;100.00
70815;BME280;58428;49.478;10.986;2023-04-01T03:31:36;96948.09;;;9.56;100.00
70815;BME280;58428;49.478;10.986;2023-04-01T03:34:02;96946.13;;;9.53;100.00
70815;BME280;58428;49.478;10.986;2023-04-01T03:36:27;96952.81;;;9.59;100.00
70815;BME280;58428;49.478;10.986;2023-04-01T03:38:53;96951.31;;;9.61;100.00
70815;BME280;58428;49.478;10.986;2023-04-01T03:41:18;96952.66;;;9.52;100.00
70815;BME280;58428;49.478;10.986;2023-04-01T03:43:44;96957.19;;;9.48;100.00
70815;BME280;58428;49.478;10.986;2023-04-01T03:46:16;96962.31;;;9.53;100.00
70815;BME280;58428;49.478;10.986;2023-04-01T03:48:41;96971.97;;;9.54;100.00
70815;BME280;58428;49.478;10.986;2023-04-01T03:51:08;96960.75;;;9.52;100.00
70815;BME280;58428;49.478;10.986;2023-04-01T03:53:36;96976.59;;;9.53;100.00
70815;BME280;58428;49.478;10.986;2023-04-01T03:56:06;96979.38;;;9.57;100.00
70815;BME280;58428;49.478;10.986;2023-04-01T03:58:31;96969.69;;;9.56;100.00
70815;BME280;58428;49.478;10.986;2023-04-01T04:00:59;96957.50;;;9.62;100.00
70815;BME280;58428;49.478;10.986;2023-04-01T04:03:27;96974.16;;;9.64;100.00
70815;BME280;58428;49.478;10.986;2023-04-01T04:05:53;96969.50;;;9.64;100.00
70815;BME280;58428;49.478;10.986;2023-04-01T04:08:18;96973.97;;;9.57;100.00
70815;BME280;58428;49.478;10.986;2023-04-01T04:10:46;96971.00;;;9.62;100.00
70815;BME280;58428;49.478;10.986;2023-04-01T04:13:12;96968.31;;;9.62;100.00
70815;BME280;58428;49.478;10.986;2023-04-01T04:15:38;96967.16;;;9.63;100.00
70815;BME280;58428;49.478;10.986;2023-04-01T04:18:03;96969.16;;;9.66;100.00
70815;BME280;58428;49.478;10.986;2023-04-01T04:20:30;96977.97;;;9.63;100.00
70815;BME280;58428;49.478;10.986;2023-04-01T04:22:55;96977.97;;;9.63;100.00
70815;BME280;58428;49.478;10.986;2023-04-01T04:25:23;96975.25;;;9.63;100.00
70815;BME280;58428;49.478;10.986;2023-04-01T04:27:50;96975.25;;;9.63;100.00
70815;BME280;58428;49.478;10.986;2023-04-01T04:30:16;96973.72;;;9.62;100.00
70815;BME280;58428;49.478;10.986;2023-04-01T04:32:42;96988.34;;;9.61;100.00
70815;BME280;58428;49.478;10.986;2023-04-01T04:35:09;96978.59;;;9.56;100.00
70815;BME280;58428;49.478;10.986;2023-04-01T04:37:35;96984.13;;;9.63;100.00
70815;BME280;58428;49.478;10.986;2023-04-01T04:40:05;96983.03;;;9.64;100.00
70815;BME280;58428;49.478;10.986;2023-04-01T04:42:31;96986.06;;;9.63;100.00
70815;BME280;58428;49.478;10.986;2023-04-01T04:45:14;96983.28;;;9.59;100.00
70815;BME280;58428;49.478;10.986;2023-04-01T04:48:14;96982.91;;;9.42;100.00
70815;BME280;58428;49.478;10.986;2023-04-01T04:50:47;96980.38;;;9.49;100.00
70815;BME280;58428;49.478;10.986;2023-04-01T04:56:24;96987.81;;;9.37;100.00
70815;BME280;58428;49.478;10.986;2023-04-01T04:59:28;96989.28;;;9.34;100.00
70815;BME280;58428;49.478;10.986;2023-04-01T05:02:24;96978.22;;;9.39;100.00
70815;BME280;58428;49.478;10.986;2023-04-01T05:05:07;96987.44;;;9.38;100.00
70815;BME280;58428;49.478;10.986;2023-04-01T05:07:43;96978.41;;;9.31;100.00
70815;BME280;58428;49.478;10.986;2023-04-01T05:10:17;96979.63;;;9.33;100.00
70815;BME280;58428;49.478;10.986;2023-04-01T05:12:57;96981.47;;;9.29;100.00
70815;BME280;58428;49.478;10.986;2023-04-01T05:15:28;96980.06;;;9.35;100.00
70815;BME280;58428;49.478;10.986;2023-04-01T05:18:26;96986.56;;;9.34;100.00
70815;BME280;58428;49.478;10.986;2023-04-01T05:20:55;96982.31;;;9.33;100.00
70815;BME280;58428;49.478;10.986;2023-04-01T05:23:27;96984.75;;;9.38;100.00
70815;BME280;58428;49.478;10.986;2023-04-01T05:26:30;96980.56;;;9.41;100.00
70815;BME280;58428;49.478;10.986;2023-04-01T05:29:05;96981.69;;;9.40;100.00
70815;BME280;58428;49.478;10.986;2023-04-01T05:31:33;96988.28;;;9.42;100.00
70815;BME280;58428;49.478;10.986;2023-04-01T05:34:01;96977.34;;;9.35;100.00
70815;BME280;58428;49.478;10.986;2023-04-01T05:36:48;96982.56;;;9.44;100.00
70815;BME280;58428;49.478;10.986;2023-04-01T05:39:17;96987.31;;;9.50;100.00
70815;BME280;58428;49.478;10.986;2023-04-01T05:41:52;96975.03;;;9.53;100.00
70815;BME280;58428;49.478;10.986;2023-04-01T05:44:20;96974.50;;;9.62;100.00
70815;BME280;58428;49.478;10.986;2023-04-01T05:47:10;96983.91;;;9.53;100.00
70815;BME280;58428;49.478;10.986;2023-04-01T05:49:47;96974.88;;;9.46;100.00
70815;BME280;58428;49.478;10.986;2023-04-01T05:52:18;96977.38;;;9.54;100.00
70815;BME280;58428;49.478;10.986;2023-04-01T05:54:46;96974.31;;;9.55;100.00
70815;BME280;58428;49.478;10.986;2023-04-01T05:57:12;96974.41;;;9.59;100.00
70815;BME280;58428;49.478;10.986;2023-04-01T05:59:38;96982.16;;;9.60;100.00
70815;BME280;58428;49.478;10.986;2023-04-01T06:02:03;96976.00;;;9.60;100.00
70815;BME280;58428;49.478;10.986;2023-04-01T06:04:37;96980.66;;;9.63;100.00
70815;BME280;58428;49.478;10.986;2023-04-01T06:07:25;96980.06;;;9.54;100.00
70815;BME280;58428;49.478;10.986;2023-04-01T06:10:20;96989.97;;;9.47;100.00
70815;BME280;58428;49.478;10.986;2023-04-01T06:15:52;96989.63;;;9.67;100.00
70815;BME280;58428;49.478;10.986;2023-04-01T06:21:35;96980.25;;;9.80;100.00
70815;BME280;58428;49.478;10.986;2023-04-01T06:27:18;96987.00;;;9.70;100.00
70815;BME280;58428;49.478;10.986;2023-04-01T06:41:58;96980.28;;;10.17;100.00
70815;BME280;58428;49.478;10.986;2023-04-01T06:48:02;96985.88;;;10.27;100.00
70815;BME280;58428;49.478;10.986;2023-04-01T06:56:14;96982.34;;;10.65;100.00
70815;BME280;58428;49.478;10.986;2023-04-01T06:58:46;96984.66;;;10.66;100.00
70815;BME280;58428;49.478;10.986;2023-04-01T07:01:21;96969.22;;;10.66;100.00
70815;BME280;58428;49.478;10.986;2023-04-01T07:03:53;96972.03;;;10.73;100.00
70815;BME280;58428;49.478;10.986;2023-04-01T07:06:40;96980.66;;;10.79;100.00
70815;BME280;58428;49.478;10.986;2023-04-01T07:09:15;96969.06;;;10.78;100.00
70815;BME280;58428;49.478;10.986;2023-04-01T07:11:42;96961.94;;;10.93;100.00
70815;BME280;58428;49.478;10.986;2023-04-01T07:14:16;96969.22;;;10.89;100.00
70815;BME280;58428;49.478;10.986;2023-04-01T07:16:53;96973.31;;;10.79;100.00
70815;BME280;58428;49.478;10.986;2023-04-01T07:19:27;96970.06;;;10.70;100.00
70815;BME280;58428;49.478;10.986;2023-04-01T07:21:59;96964.00;;;10.77;100.00
70815;BME280;58428;49.478;10.986;2023-04-01T07:24:34;96970.06;;;10.93;100.00
70815;BME280;58428;49.478;10.986;2023-04-01T07:27:08;96968.88;;;11.16;100.00
70815;BME280;58428;49.478;10.986;2023-04-01T07:29:34;96963.25;;;11.28;100.00
70815;BME280;58428;49.478;10.986;2023-04-01T07:32:18;96964.00;;;11.25;100.00
70815;BME280;58428;49.478;10.986;2023-04-01T07:40:32;96977.47;;;11.21;100.00
70815;BME280;58428;49.478;10.986;2023-04-01T07:53:05;96981.72;;;11.44;100.00
70815;BME280;58428;49.478;10.986;2023-04-01T08:02:01;96983.41;;;11.81;100.00
70815;BME280;58428;49.478;10.986;2023-04-01T08:07:25;96986.13;;;11.81;100.00
70815;BME280;58428;49.478;10.986;2023-04-01T08:10:16;96982.53;;;11.74;100.00
70815;BME280;58428;49.478;10.986;2023-04-01T08:24:43;96979.31;;;11.94;100.00
70815;BME280;58428;49.478;10.986;2023-04-01T08:27:34;96990.78;;;11.84;100.00
70815;BME280;58428;49.478;10.986;2023-04-01T08:33:14;96991.06;;;11.76;100.00
70815;BME280;58428;49.478;10.986;2023-04-01T08:35:48;96980.34;;;11.83;100.00
70815;BME280;58428;49.478;10.986;2023-04-01T08:38:31;96985.78;;;11.86;100.00
70815;BME280;58428;49.478;10.986;2023-04-01T08:47:29;96978.91;;;11.92;100.00
70815;BME280;58428;49.478;10.986;2023-04-01T09:02:05;96972.53;;;12.11;100.00
70815;BME280;58428;49.478;10.986;2023-04-01T09:10:41;96982.75;;;11.91;100.00
70815;BME280;58428;49.478;10.986;2023-04-01T09:13:41;96987.97;;;12.07;100.00
70815;BME280;58428;49.478;10.986;2023-04-01T09:19:24;96975.31;;;12.14;100.00
70815;BME280;58428;49.478;10.986;2023-04-01T09:28:27;96981.81;;;11.80;100.00
70815;BME280;58428;49.478;10.986;2023-04-01T09:39:37;96989.53;;;11.75;100.00
70815;BME280;58428;49.478;10.986;2023-04-01T09:47:55;96991.06;;;12.05;100.00
70815;BME280;58428;49.478;10.986;2023-04-01T10:08:37;97016.38;;;11.61;100.00
70815;BME280;58428;49.478;10.986;2023-04-01T11:28:14;97013.38;;;10.74;100.00
70815;BME280;58428;49.478;10.986;2023-04-01T11:31:00;97003.47;;;10.81;100.00
70815;BME280;58428;49.478;10.986;2023-04-01T11:46:33;97008.00;;;10.96;100.00
70815;BME280;58428;49.478;10.986;2023-04-01T12:13:50;97018.41;;;11.93;100.00
70815;BME280;58428;49.478;10.986;2023-04-01T12:34:30;97017.03;;;11.77;100.00
70815;BME280;58428;49.478;10.986;2023-04-01T12:59:22;97025.81;;;11.96;100.00
70815;BME280;58428;49.478;10.986;2023-04-01T13:50:07;97022.03;;;13.05;100.00
70815;BME280;58428;49.478;10.986;2023-04-01T14:21:56;97053.44;;;11.54;100.00
70815;BME280;58428;49.478;10.986;2023-04-01T14:33:19;97065.13;;;11.13;100.00
70815;BME280;58428;49.478;10.986;2023-04-01T14:42:23;97073.25;;;11.13;100.00
70815;BME280;58428;49.478;10.986;2023-04-01T14:50:08;97070.59;;;10.95;100.00
70815;BME280;58428;49.478;10.986;2023-04-01T14:58:21;97082.22;;;11.17;100.00
70815;BME280;58428;49.478;10.986;2023-04-01T15:03:46;97078.47;;;11.25;100.00
70815;BME280;58428;49.478;10.986;2023-04-01T15:12:23;97064.31;;;11.57;100.00
70815;BME280;58428;49.478;10.986;2023-04-01T15:21:13;97073.66;;;11.60;100.00
70815;BME280;58428;49.478;10.986;2023-04-01T15:32:24;97080.50;;;11.32;100.00
70815;BME280;58428;49.478;10.986;2023-04-01T15:38:07;97095.44;;;11.22;100.00
70815;BME280;58428;49.478;10.986;2023-04-01T15:41:00;97092.13;;;11.32;100.00
70815;BME280;58428;49.478;10.986;2023-04-01T15:43:43;97100.19;;;11.06;100.00
70815;BME280;58428;49.478;10.986;2023-04-01T16:00:47;97126.84;;;10.86;100.00
70815;BME280;58428;49.478;10.986;2023-04-01T16:03:46;97108.44;;;10.72;100.00
70815;BME280;58428;49.478;10.986;2023-04-01T16:09:59;97115.84;;;10.57;100.00
70815;BME280;58428;49.478;10.986;2023-04-01T16:12:42;97115.78;;;10.53;100.00
70815;BME280;58428;49.478;10.986;2023-04-01T16:15:45;97106.94;;;10.56;100.00
70815;BME280;58428;49.478;10.986;2023-04-01T16:18:54;97127.97;;;10.63;100.00
70815;BME280;58428;49.478;10.986;2023-04-01T16:21:53;97127.88;;;10.59;100.00
70815;BME280;58428;49.478;10.986;2023-04-01T16:25:17;97135.56;;;10.57;100.00
70815;BME280;58428;49.478;10.986;2023-04-01T16:28:10;97127.16;;;10.62;100.00
70815;BME280;58428;49.478;10.986;2023-04-01T16:34:09;97132.38;;;10.52;100.00
70815;BME280;58428;49.478;10.986;2023-04-01T16:37:10;97138.47;;;10.49;100.00
70815;BME280;58428;49.478;10.986;2023-04-01T16:51:32;97141.59;;;10.32;100.00
70815;BME280;58428;49.478;10.986;2023-04-01T16:56:45;97153.41;;;10.24;100.00
70815;BME280;58428;49.478;10.986;2023-04-01T17:01:53;97164.59;;;10.07;100.00
70815;BME280;58428;49.478;10.986;2023-04-01T17:04:37;97158.75;;;10.05;100.00
70815;BME280;58428;49.478;10.986;2023-04-01T17:15:38;97168.41;;;10.06;100.00
70815;BME280;58428;49.478;10.986;2023-04-01T17:18:44;97175.16;;;10.12;100.00
70815;BME280;58428;49.478;10.986;2023-04-01T17:21:49;97171.22;;;10.10;100.00
70815;BME280;58428;49.478;10.986;2023-04-01T17:24:38;97182.44;;;10.12;100.00
70815;BME280;58428;49.478;10.986;2023-04-01T18:06:52;97234.88;;;9.92;100.00
70815;BME280;58428;49.478;10.986;2023-04-01T18:15:46;97250.31;;;9.92;100.00
70815;BME280;58428;49.478;10.986;2023-04-01T18:18:42;97239.31;;;10.00;100.00
70815;BME280;58428;49.478;10.986;2023-04-01T18:21:46;97240.47;;;9.99;100.00
70815;BME280;58428;49.478;10.986;2023-04-01T18:24:30;97250.41;;;9.95;100.00
70815;BME280;58428;49.478;10.986;2023-04-01T18:27:16;97254.75;;;9.99;100.00
70815;BME280;58428;49.478;10.986;2023-04-01T18:45:36;97265.47;;;9.96;100.00
70815;BME280;58428;49.478;10.986;2023-04-01T18:50:48;97265.56;;;9.99;100.00
70815;BME280;58428;49.478;10.986;2023-04-01T18:56:34;97272.56;;;9.89;100.00
70815;BME280;58428;49.478;10.986;2023-04-01T19:38:50;97309.34;;;9.78;100.00
70815;BME280;58428;49.478;10.986;2023-04-01T19:56:23;97316.28;;;9.63;100.00
70815;BME280;58428;49.478;10.986;2023-04-01T19:59:05;97328.06;;;9.71;100.00
70815;BME280;58428;49.478;10.986;2023-04-01T20:02:01;97324.56;;;9.70;100.00
70815;BME280;58428;49.478;10.986;2023-04-01T20:04:55;97321.09;;;9.70;100.00
70815;BME280;58428;49.478;10.986;2023-04-01T20:07:52;97321.44;;;9.68;100.00
70815;BME280;58428;49.478;10.986;2023-04-01T20:19:41;97340.50;;;9.75;100.00
70815;BME280;58428;49.478;10.986;2023-04-01T20:38:13;97356.25;;;9.85;100.00
70815;BME280;58428;49.478;10.986;2023-04-01T20:41:02;97364.69;;;9.84;100.00
70815;BME280;58428;49.478;10.986;2023-04-01T20:49:46;97362.75;;;9.84;100.00
70815;BME280;58428;49.478;10.986;2023-04-01T20:52:41;97365.38;;;9.81;100.00
70815;BME280;58428;49.478;10.986;2023-04-01T20:58:19;97372.78;;;9.84;100.00
70815;BME280;58428;49.478;10.986;2023-04-01T21:01:05;97369.38;;;9.87;100.00
70815;BME280;58428;49.478;10.986;2023-04-01T21:17:37;97397.44;;;9.82;100.00
70815;BME280;58428;49.478;10.986;2023-04-01T21:33:54;97407.03;;;9.80;100.00
70815;BME280;58428;49.478;10.986;2023-04-01T21:36:44;97411.19;;;9.77;100.00
70815;BME280;58428;49.478;10.986;2023-04-01T21:45:13;97418.16;;;9.78;100.00
70815;BME280;58428;49.478;10.986;2023-04-01T22:08:06;97443.50;;;9.74;100.00
70815;BME280;58428;49.478;10.986;2023-04-01T22:10:52;97445.34;;;9.70;100.00
70815;BME280;58428;49.478;10.986;2023-04-01T22:13:34;97447.66;;;9.71;100.00
70815;BME280;58428;49.478;10.986;2023-04-01T22:16:36;97449.16;;;9.69;100.00
70815;BME280;58428;49.478;10.986;2023-04-01T22:22:01;97448.47;;;9.72;100.00
70815;BME280;58428;49.478;10.986;2023-04-01T22:27:13;97452.94;;;9.80;100.00
70815;BME280;58428;49.478;10.986;2023-04-01T22:32:28;97460.06;;;9.72;100.00
70815;BME280;58428;49.478;10.986;2023-04-01T22:35:09;97460.28;;;9.67;100.00
70815;BME280;58428;49.478;10.986;2023-04-01T22:42:59;97473.13;;;9.70;100.00
70815;BME280;58428;49.478;10.986;2023-04-01T22:48:20;97469.28;;;9.71;100.00
70815;BME280;58428;49.478;10.986;2023-04-01T22:50:55;97473.91;;;9.71;100.00
70815;BME280;58428;49.478;10.986;2023-04-01T22:56:15;97482.34;;;9.69;100.00
70815;BME280;58428;49.478;10.986;2023-04-01T22:58:54;97485.75;;;9.66;100.00
70815;BME280;58428;49.478;10.986;2023-04-01T23:01:29;97485.19;;;9.61;100.00
70815;BME280;58428;49.478;10.986;2023-04-01T23:03:56;97487.88;;;9.61;100.00
70815;BME280;58428;49.478;10.986;2023-04-01T23:06:40;97485.28;;;9.64;100.00
70815;BME280;58428;49.478;10.986;2023-04-01T23:11:56;97488.03;;;9.53;100.00
70815;BME280;58428;49.478;10.986;2023-04-01T23:19:44;97499.16;;;9.51;100.00
70815;BME280;58428;49.478;10.986;2023-04-01T23:22:25;97496.13;;;9.53;100.00
70815;BME280;58428;49.478;10.986;2023-04-01T23:27:33;97503.09;;;9.53;100.00
70815;BME280;58428;49.478;10.986;2023-04-01T23:30:03;97503.84;;;9.54;100.00
70815;BME280;58428;49.478;10.986;2023-04-01T23:32:28;97507.44;;;9.58;100.00
70815;BME280;58428;49.478;10.986;2023-04-01T23:34:56;97505.91;;;9.57;100.00
70815;BME280;58428;49.478;10.986;2023-04-01T23:37:22;97512.97;;;9.61;100.00
70815;BME280;58428;49.478;10.986;2023-04-01T23:39:51;97517.28;;;9.51;100.00
70815;BME280;58428;49.478;10.986;2023-04-01T23:42:27;97513.69;;;9.47;100.00
70815;BME280;58428;49.478;10.986;2023-04-01T23:45:15;97519.75;;;9.44;100.00
70815;BME280;58428;49.478;10.986;2023-04-01T23:47:49;97523.78;;;9.50;100.00
70815;BME280;58428;49.478;10.986;2023-04-01T23:50:20;97524.81;;;9.45;100.00
70815;BME280;58428;49.478;10.986;2023-04-01T23:52:52;97531.78;;;9.46;100.00
70815;BME280;58428;49.478;10.986;2023-04-01T23:55:27;97539.22;;;9.49;100.00
